Time;durP1;ratioP1;P1;durP2;ratioP2;P2;SDS_P1;SDS_P2;PMS_P1;PMS_P2;Temp;Humidity;BMP_temperature;BMP_pressure;BME280_temperature;BME280_humidity;BME280_pressure;Samples;Min_cycle;Max_cycle;Signal;HPM_P1;HPM_P2
2021/08/11 00:01:02;;;;;;;9.13;4.65;;;;;;;16.59;63.68;100118.25;10450307;28;20081;-63
2021/08/11 00:06:04;;;;;;;11.52;5.13;;;;;;;16.52;64.02;100114.41;10450651;28;20041;-62
2021/08/11 00:11:06;;;;;;;10.35;5.90;;;;;;;16.37;64.07;100118.25;10447909;28;20142;-63
2021/08/11 00:16:08;;;;;;;9.45;4.55;;;;;;;16.22;64.42;100120.34;10450734;28;20110;-63
2021/08/11 00:21:10;;;;;;;7.32;4.38;;;;;;;16.23;64.21;100122.84;10450325;28;20059;-63
2021/08/11 00:26:12;;;;;;;7.65;4.47;;;;;;;16.27;64.40;100125.25;10465128;28;20927;-62
2021/08/11 00:31:13;;;;;;;10.63;5.00;;;;;;;16.07;64.17;100122.41;10448519;28;20127;-62
2021/08/11 00:36:15;;;;;;;8.52;4.80;;;;;;;15.85;64.91;100117.16;10445380;28;20095;-62
2021/08/11 00:41:17;;;;;;;9.52;4.70;;;;;;;15.95;64.73;100109.34;10441838;28;20068;-63
2021/08/11 00:46:19;;;;;;;8.77;5.10;;;;;;;15.95;64.94;100114.63;10449597;28;20041;-62
2021/08/11 00:51:21;;;;;;;9.98;4.30;;;;;;;15.89;64.51;100123.88;10443484;28;20111;-62
2021/08/11 00:56:24;;;;;;;8.05;4.47;;;;;;;15.83;64.67;100124.34;10441799;28;20452;-63
2021/08/11 01:01:27;;;;;;;7.88;4.47;;;;;;;15.76;64.67;100117.00;10446918;28;20083;-63
2021/08/11 01:06:36;;;;;;;7.72;4.57;;;;;;;15.77;64.67;100126.63;10439627;28;20417;-63
2021/08/11 01:11:47;;;;;;;7.60;4.50;;;;;;;15.72;65.00;100118.22;10447460;28;20045;-63
2021/08/11 01:16:48;;;;;;;11.27;4.70;;;;;;;15.65;64.68;100136.31;10448008;28;20886;-63
2021/08/11 01:21:53;;;;;;;9.10;5.30;;;;;;;15.54;64.98;100132.81;10447019;28;20132;-63
2021/08/11 01:27:01;;;;;;;100.32;6.47;;;;;;;15.20;65.35;100137.16;10446355;28;20127;-63
2021/08/11 01:32:13;;;;;;;10.20;4.63;;;;;;;15.18;65.82;100131.19;10430071;28;20121;-63
2021/08/11 01:37:25;;;;;;;6.22;4.40;;;;;;;15.30;65.70;100132.88;10431241;28;20136;-63
2021/08/11 01:42:40;;;;;;;6.68;4.20;;;;;;;15.32;65.48;100133.59;10430983;28;20123;-63
2021/08/11 01:47:47;;;;;;;9.48;5.45;;;;;;;15.27;65.90;100133.94;10447284;28;20045;-63
2021/08/11 01:52:50;;;;;;;8.40;5.00;;;;;;;15.24;65.43;100133.34;10446243;28;20123;-63
2021/08/11 01:57:54;;;;;;;102.50;8.27;;;;;;;14.99;65.31;100139.63;10443807;28;20048;-63
2021/08/11 02:02:56;;;;;;;66.57;10.07;;;;;;;14.69;66.02;100133.13;10449888;28;20509;-62
2021/08/11 02:08:00;;;;;;;8.15;5.30;;;;;;;14.65;66.09;100131.69;10453735;28;20056;-63
2021/08/11 02:13:04;;;;;;;67.28;7.78;;;;;;;14.63;66.39;100142.34;10452458;28;20084;-63
2021/08/11 02:18:06;;;;;;;44.55;5.80;;;;;;;14.69;66.47;100131.34;10453744;28;20079;-63
2021/08/11 02:23:09;;;;;;;196.20;6.57;;;;;;;14.49;66.69;100134.59;10452697;28;20493;-63
2021/08/11 02:28:19;;;;;;;106.05;9.40;;;;;;;14.42;67.07;100136.78;10434589;28;20478;-63
2021/08/11 02:33:24;;;;;;;;;;;;;;;14.24;67.87;100140.75;10457719;28;20136;-63
2021/08/11 02:38:40;;;;;;;42.75;6.85;;;;;;;14.62;66.39;100135.38;10451918;28;20012;-63
2021/08/11 02:43:48;;;;;;;257.75;8.93;;;;;;;14.46;66.67;100135.63;10419493;28;20485;-63
2021/08/11 02:49:02;;;;;;;79.78;7.60;;;;;;;14.37;67.37;100135.47;10451838;28;20140;-63
2021/08/11 02:54:11;;;;;;;9.93;5.00;;;;;;;14.56;67.22;100144.56;10452178;28;20383;-63
2021/08/11 02:59:14;;;;;;;9.88;5.25;;;;;;;14.72;66.82;100146.91;10466198;28;20468;-63
2021/08/11 03:04:16;;;;;;;9.75;5.60;;;;;;;14.96;66.34;100153.00;10449182;28;20120;-63
2021/08/11 03:09:21;;;;;;;8.98;5.60;;;;;;;15.04;66.17;100158.53;10449776;28;20140;-63
2021/08/11 03:14:23;;;;;;;22.17;7.28;;;;;;;15.05;66.06;100159.38;10453379;28;20374;-63
2021/08/11 03:19:25;;;;;;;17.38;6.15;;;;;;;15.05;66.11;100162.84;10452657;28;20056;-63
2021/08/11 03:24:27;;;;;;;16.60;6.00;;;;;;;15.14;66.04;100170.06;10453780;28;20123;-63
2021/08/11 03:29:28;;;;;;;97.68;7.40;;;;;;;15.10;66.34;100163.34;10446063;28;20049;-63
2021/08/11 03:34:30;;;;;;;22.73;6.25;;;;;;;15.10;66.55;100170.44;10453057;28;20084;-63
2021/08/11 03:39:32;;;;;;;127.00;8.50;;;;;;;15.08;66.54;100159.16;10452164;28;20143;-63
2021/08/11 03:44:34;;;;;;;67.18;7.47;;;;;;;15.03;66.93;100162.13;10452865;28;20131;-63
2021/08/11 03:49:36;;;;;;;20.02;6.63;;;;;;;15.15;66.74;100160.38;10451048;28;20140;-63
2021/08/11 03:54:38;;;;;;;64.00;7.53;;;;;;;15.22;66.50;100158.97;10467494;28;20049;-63
2021/08/11 03:59:39;;;;;;;20.60;6.93;;;;;;;15.21;66.59;100159.91;10425911;28;20450;-63
2021/08/11 04:04:41;;;;;;;13.65;5.88;;;;;;;15.16;66.62;100162.88;10451957;28;20140;-63
2021/08/11 04:09:43;;;;;;;44.33;7.75;;;;;;;15.01;66.39;100163.19;10451292;28;20128;-63
2021/08/11 04:14:45;;;;;;;27.70;4.47;;;;;;;15.03;66.66;100174.44;10451764;28;20082;-63
2021/08/11 04:19:46;;;;;;;34.72;5.32;;;;;;;14.90;66.73;100176.34;10450199;28;20394;-63
2021/08/11 04:24:48;;;;;;;31.60;5.13;;;;;;;14.85;66.80;100178.44;10450604;28;20059;-62
2021/08/11 04:29:50;;;;;;;48.25;5.32;;;;;;;14.88;66.68;100199.31;10423322;28;20072;-62
2021/08/11 04:34:52;;;;;;;19.45;4.70;;;;;;;14.95;66.47;100192.63;10450454;28;20098;-63
2021/08/11 04:39:53;;;;;;;34.85;5.03;;;;;;;14.93;66.58;100197.16;10449732;28;20540;-62
2021/08/11 04:44:55;;;;;;;44.22;4.53;;;;;;;14.92;66.46;100193.69;10461211;28;20098;-62
2021/08/11 04:49:57;;;;;;;15.57;4.00;;;;;;;14.93;66.34;100207.69;10445909;28;20148;-63
2021/08/11 04:55:01;;;;;;;29.98;3.97;;;;;;;14.96;66.00;100207.47;10445938;28;20102;-62
2021/08/11 05:00:03;;;;;;;4.90;3.40;;;;;;;15.06;66.00;100216.38;10424320;28;20084;-62
2021/08/11 05:05:06;;;;;;;198.00;10.18;;;;;;;15.05;65.65;100209.41;10447217;28;20083;-63
2021/08/11 05:10:10;;;;;;;467.15;16.77;;;;;;;14.95;65.67;100211.91;10443661;28;20049;-63
2021/08/11 05:15:12;;;;;;;7.55;4.18;;;;;;;15.05;65.60;100222.59;10444920;28;20079;-63
2021/08/11 05:20:15;;;;;;;7.53;3.78;;;;;;;15.25;65.73;100222.81;10435160;28;20409;-63
2021/08/11 05:25:16;;;;;;;91.47;5.80;;;;;;;15.29;65.24;100228.69;10447052;28;20509;-64
2021/08/11 05:30:18;;;;;;;42.10;4.60;;;;;;;15.31;65.17;100222.34;10445657;28;20092;-63
2021/08/11 05:35:21;;;;;;;567.85;20.45;;;;;;;15.41;65.14;100227.75;10443364;28;20413;-63
2021/08/11 05:40:25;;;;;;;12.65;4.60;;;;;;;15.57;65.07;100228.31;10446780;28;20088;-63
2021/08/11 05:45:26;;;;;;;181.80;7.55;;;;;;;15.55;64.79;100232.88;10445382;28;20123;-64
2021/08/11 05:50:28;;;;;;;927.15;27.23;;;;;;;15.37;65.22;100228.94;10446695;28;20068;-63
2021/08/11 05:55:30;;;;;;;290.40;10.50;;;;;;;15.46;65.29;100227.41;10446534;28;20148;-63
2021/08/11 06:00:32;;;;;;;22.92;5.50;;;;;;;15.61;65.41;100236.84;10434574;28;20140;-63
2021/08/11 06:05:34;;;;;;;82.28;6.07;;;;;;;15.80;64.97;100240.59;10427948;28;20049;-64
2021/08/11 06:10:36;;;;;;;170.63;9.90;;;;;;;15.97;64.51;100242.81;10433568;28;20072;-63
2021/08/11 06:15:38;;;;;;;371.85;13.18;;;;;;;15.92;64.21;100242.31;10413984;28;20561;-63
2021/08/11 06:20:40;;;;;;;379.55;17.85;;;;;;;15.78;64.73;100242.53;10416621;28;20098;-63
2021/08/11 06:25:42;;;;;;;251.35;11.13;;;;;;;15.71;65.10;100243.13;10435294;28;20489;-63
2021/08/11 06:30:43;;;;;;;31.90;8.32;;;;;;;15.91;65.12;100237.16;10423020;28;20588;-63
2021/08/11 06:35:45;;;;;;;70.63;9.90;;;;;;;16.03;64.58;100237.06;10446775;28;20045;-63
2021/08/11 06:40:48;;;;;;;171.15;13.75;;;;;;;16.15;63.97;100237.88;10415938;28;20100;-63
2021/08/11 06:45:49;;;;;;;479.55;17.55;;;;;;;16.34;63.45;100240.78;10423788;28;20123;-63
2021/08/11 06:50:51;;;;;;;102.20;10.30;;;;;;;16.52;63.50;100243.78;10430639;28;20124;-63
2021/08/11 06:55:53;;;;;;;11.88;7.90;;;;;;;16.92;62.78;100247.56;10412470;28;20125;-63
2021/08/11 07:00:59;;;;;;;28.25;7.25;;;;;;;17.09;61.88;100249.69;10429930;28;20124;-63
2021/08/11 07:06:01;;;;;;;10.07;7.22;;;;;;;17.12;61.95;100253.88;10415473;28;20509;-63
2021/08/11 07:11:03;;;;;;;11.05;6.88;;;;;;;17.37;61.72;100250.91;10417541;28;20154;-63
2021/08/11 07:16:05;;;;;;;11.48;8.05;;;;;;;17.52;60.87;100247.00;10408224;28;20045;-63
2021/08/11 07:21:07;;;;;;;11.68;7.38;;;;;;;17.60;60.69;100250.69;10416257;28;20381;-63
2021/08/11 07:26:09;;;;;;;9.60;7.20;;;;;;;17.77;60.47;100252.75;10420427;28;20658;-63
2021/08/11 07:31:11;;;;;;;15.73;8.75;;;;;;;17.98;59.89;100257.19;10440363;28;20045;-63
2021/08/11 07:36:13;;;;;;;9.60;8.18;;;;;;;18.14;59.31;100257.53;10442745;28;20052;-63
2021/08/11 07:41:15;;;;;;;8.68;7.18;;;;;;;18.71;58.87;100257.81;10438241;28;20130;-64
2021/08/11 07:46:17;;;;;;;11.80;7.18;;;;;;;19.32;56.78;100255.84;10450703;28;20076;-63
2021/08/11 07:51:19;;;;;;;9.63;7.00;;;;;;;19.57;56.01;100251.78;10421946;28;20041;-63
2021/08/11 07:56:22;;;;;;;8.95;6.60;;;;;;;20.19;54.92;100244.97;10454287;28;20045;-63
2021/08/11 08:01:25;;;;;;;9.52;7.32;;;;;;;20.40;54.33;100242.09;10440054;28;20049;-63
2021/08/11 08:06:27;;;;;;;9.80;6.57;;;;;;;20.55;53.68;100245.94;10443371;28;20448;-63
2021/08/11 08:11:29;;;;;;;8.52;5.50;;;;;;;21.55;52.04;100230.75;10422057;28;20080;-63
2021/08/11 08:16:30;;;;;;;7.82;5.72;;;;;;;22.29;50.39;100225.75;10430134;28;20073;-64
2021/08/11 08:21:32;;;;;;;9.25;4.40;;;;;;;22.77;49.42;100230.47;10433513;28;20046;-63
2021/08/11 08:26:34;;;;;;;4.93;3.67;;;;;;;23.53;47.87;100221.28;10432743;28;20088;-61
2021/08/11 08:31:36;;;;;;;7.13;4.13;;;;;;;24.00;46.54;100221.38;10441939;28;20080;-61
2021/08/11 08:36:38;;;;;;;5.20;3.83;;;;;;;23.98;46.35;100213.50;10447303;28;20489;-60
2021/08/11 08:41:42;;;;;;;6.03;4.30;;;;;;;24.47;45.65;100221.41;10445727;28;20568;-60
2021/08/11 08:46:44;;;;;;;5.85;3.85;;;;;;;24.23;45.96;100230.34;10426104;28;20080;-60
2021/08/11 08:51:49;;;;;;;5.25;3.70;;;;;;;24.67;45.08;100230.69;10433717;28;20076;-60
2021/08/11 08:56:51;;;;;;;5.68;3.40;;;;;;;24.62;44.93;100222.34;10426010;28;20408;-61
2021/08/11 09:01:52;;;;;;;6.05;3.30;;;;;;;24.62;44.32;100225.00;10446289;28;20053;-61
2021/08/11 09:06:57;;;;;;;5.60;3.20;;;;;;;25.02;44.15;100214.09;10443956;28;20049;-61
2021/08/11 09:12:18;;;;;;;5.32;3.42;;;;;;;25.28;42.12;100214.59;10423652;28;20091;-61
2021/08/11 09:17:38;;;;;;;5.20;2.72;;;;;;;25.48;41.67;100214.97;10434718;28;20452;-60
2021/08/11 09:22:47;;;;;;;5.00;2.33;;;;;;;26.00;39.39;100204.28;10438905;28;20084;-60
2021/08/11 09:27:50;;;;;;;4.75;2.30;;;;;;;25.94;41.10;100205.81;10432885;28;20057;-60
2021/08/11 09:32:58;;;;;;;5.05;2.30;;;;;;;26.28;40.94;100190.03;10438082;28;20049;-61
2021/08/11 09:38:05;;;;;;;4.25;1.95;;;;;;;26.58;39.77;100177.47;10420494;28;20081;-61
2021/08/11 09:43:32;;;;;;;4.75;2.15;;;;;;;26.51;38.83;100177.34;10404597;28;20562;-61
2021/08/11 09:48:41;;;;;;;5.05;2.72;;;;;;;27.19;37.91;100176.91;10400434;28;20089;-61
2021/08/11 09:53:45;;;;;;;4.53;2.22;;;;;;;27.65;37.53;100182.63;10404238;28;20041;-61
2021/08/11 09:59:02;;;;;;;4.10;2.33;;;;;;;27.60;36.38;100181.56;10404739;28;20136;-61
2021/08/11 10:04:06;;;;;;;4.03;2.40;;;;;;;27.79;37.59;100180.94;10442939;28;20091;-61
2021/08/11 10:09:16;;;;;;;4.72;2.20;;;;;;;28.28;35.13;100179.75;10442263;28;20088;-60
2021/08/11 10:14:22;;;;;;;3.58;2.15;;;;;;;28.45;35.12;100187.50;10429443;28;20132;-60
2021/08/11 10:19:29;;;;;;;6.65;2.50;;;;;;;28.56;34.96;100184.25;10441380;28;20106;-60
2021/08/11 10:24:31;;;;;;;3.83;2.20;;;;;;;28.28;34.78;100181.59;10429738;28;20112;-60
2021/08/11 10:29:36;;;;;;;3.25;2.15;;;;;;;28.04;34.27;100182.09;10438406;28;20547;-60
2021/08/11 10:34:39;;;;;;;3.55;2.30;;;;;;;28.05;34.53;100181.09;10439498;28;20091;-60
2021/08/11 10:39:41;;;;;;;3.53;2.20;;;;;;;28.13;34.40;100178.25;10441808;28;20057;-60
2021/08/11 10:44:45;;;;;;;5.43;2.13;;;;;;;28.36;35.17;100181.47;10437838;28;20041;-61
2021/08/11 10:50:03;;;;;;;6.22;2.40;;;;;;;28.47;33.81;100180.91;10443412;28;20061;-61
2021/08/11 10:55:07;;;;;;;4.03;2.20;;;;;;;28.43;34.69;100181.50;10417412;28;20074;-60
2021/08/11 11:00:20;;;;;;;3.33;2.05;;;;;;;27.40;35.54;100194.84;10442693;28;20152;-60
2021/08/11 11:05:23;;;;;;;4.05;2.47;;;;;;;26.73;37.02;100188.16;10431299;28;20128;-60
2021/08/11 11:10:28;;;;;;;3.63;2.30;;;;;;;26.47;37.72;100193.97;10430673;28;20045;-60
2021/08/11 11:15:41;;;;;;;5.03;2.30;;;;;;;26.42;36.91;100196.41;10435869;28;20052;-59
2021/08/11 11:20:46;;;;;;;3.30;2.17;;;;;;;26.65;36.63;100179.19;10438363;28;20052;-60
2021/08/11 11:26:01;;;;;;;4.07;2.30;;;;;;;27.04;36.08;100176.09;10437176;28;20042;-60
2021/08/11 11:31:34;;;;;;;3.70;2.35;;;;;;;26.87;35.02;100171.16;10445072;28;20507;-60
2021/08/11 11:36:37;;;;;;;4.25;2.13;;;;;;;27.12;35.85;100172.44;10416909;28;20055;-60
2021/08/11 11:42:22;;;;;;;5.75;2.40;;;;;;;26.91;35.30;100167.09;10444452;28;20128;-60
2021/08/11 11:47:40;;;;;;;3.20;2.20;;;;;;;26.69;34.72;100159.00;10447554;28;20496;-59
2021/08/11 11:53:07;;;;;;;4.85;2.28;;;;;;;26.77;34.90;100167.97;10447509;28;20045;-60
2021/08/11 11:58:15;;;;;;;6.30;2.58;;;;;;;26.82;34.93;100166.38;10429145;28;20746;-60
2021/08/11 12:03:19;;;;;;;4.63;2.38;;;;;;;26.90;36.06;100155.50;10409053;28;20054;-60
2021/08/11 12:08:22;;;;;;;3.53;2.22;;;;;;;27.01;35.55;100148.81;10430732;28;20103;-60
2021/08/11 12:13:23;;;;;;;3.83;2.20;;;;;;;26.64;35.12;100141.81;10447714;28;20394;-61
2021/08/11 12:18:25;;;;;;;3.80;2.50;;;;;;;26.67;35.59;100141.41;10445724;28;20491;-60
2021/08/11 12:23:30;;;;;;;5.53;2.50;;;;;;;26.61;36.32;100144.88;10440235;28;20075;-60
2021/08/11 12:28:37;;;;;;;3.85;2.60;;;;;;;26.57;35.31;100135.53;10420225;28;20049;-60
2021/08/11 12:33:46;;;;;;;4.20;2.30;;;;;;;26.61;36.69;100145.72;10434812;28;20072;-60
2021/08/11 12:39:00;;;;;;;5.10;2.30;;;;;;;27.05;35.78;100134.81;10458178;28;20513;-60
2021/08/11 12:44:31;;;;;;;5.85;2.80;;;;;;;27.11;34.72;100138.56;10446237;28;20041;-59
2021/08/11 12:49:38;;;;;;;3.95;2.38;;;;;;;27.16;34.85;100141.53;10429001;28;20045;-60
2021/08/11 12:55:06;;;;;;;4.70;2.40;;;;;;;26.83;35.35;100143.91;10426236;28;20044;-60
2021/08/11 13:00:09;;;;;;;4.50;2.50;;;;;;;26.89;36.83;100135.06;10441737;28;20137;-60
2021/08/11 13:05:17;;;;;;;3.97;2.53;;;;;;;26.94;36.76;100134.47;10430181;28;20045;-60
2021/08/11 13:10:20;;;;;;;4.57;2.15;;;;;;;27.00;36.65;100139.06;10444926;28;20408;-60
2021/08/11 13:15:34;;;;;;;3.90;2.50;;;;;;;26.86;35.86;100143.50;10445777;28;20075;-61
2021/08/11 13:20:47;;;;;;;6.63;2.60;;;;;;;26.72;35.05;100144.38;10457147;28;20060;-60
2021/08/11 13:25:50;;;;;;;5.03;2.38;;;;;;;26.26;36.08;100143.81;10444841;28;20136;-60
2021/08/11 13:30:53;;;;;;;3.30;2.20;;;;;;;26.26;35.98;100130.38;10411008;28;20128;-60
2021/08/11 13:35:54;;;;;;;9.52;2.90;;;;;;;26.40;36.25;100129.56;10451335;28;20118;-61
2021/08/11 13:40:56;;;;;;;7.43;2.58;;;;;;;26.64;35.40;100125.72;10447400;28;20057;-60
2021/08/11 13:45:59;;;;;;;4.65;2.60;;;;;;;26.90;34.93;100112.56;10431963;28;20069;-60
2021/08/11 13:51:01;;;;;;;5.35;2.67;;;;;;;26.84;35.32;100116.03;10449343;28;20045;-60
2021/08/11 13:56:07;;;;;;;3.67;2.50;;;;;;;26.64;34.98;100120.34;10430995;28;20041;-60
2021/08/11 14:01:08;;;;;;;3.85;2.50;;;;;;;26.62;37.22;100127.75;10432670;28;20112;-60
2021/08/11 14:06:10;;;;;;;8.02;2.85;;;;;;;26.58;34.45;100119.28;10420288;28;20045;-60
2021/08/11 14:11:12;;;;;;;4.93;2.67;;;;;;;26.92;34.58;100118.56;10429376;28;20076;-60
2021/08/11 14:16:14;;;;;;;5.30;2.60;;;;;;;26.98;34.40;100111.59;10444417;28;20050;-60
2021/08/11 14:21:16;;;;;;;4.85;2.53;;;;;;;26.42;35.52;100119.47;10440217;28;20107;-60
2021/08/11 14:26:18;;;;;;;4.88;2.60;;;;;;;26.32;36.51;100110.06;10443685;28;20040;-60
2021/08/11 14:31:20;;;;;;;5.65;2.67;;;;;;;26.36;35.82;100097.94;10442023;28;20136;-60
2021/08/11 14:36:23;;;;;;;5.18;2.50;;;;;;;26.43;34.92;100107.72;10445939;28;20049;-61
2021/08/11 14:41:25;;;;;;;4.47;2.95;;;;;;;26.35;35.03;100107.81;10444828;28;20087;-60
2021/08/11 14:46:27;;;;;;;5.78;2.60;;;;;;;26.25;35.61;100107.28;10445995;28;20045;-60
2021/08/11 14:51:29;;;;;;;6.75;2.97;;;;;;;26.25;36.77;100101.09;10443254;28;20390;-60
2021/08/11 14:56:31;;;;;;;6.93;3.00;;;;;;;26.08;36.71;100110.38;10445185;28;20056;-60
2021/08/11 15:01:34;;;;;;;6.32;3.25;;;;;;;26.00;38.18;100099.78;10445201;28;20084;-60
2021/08/11 15:06:37;;;;;;;5.68;3.40;;;;;;;26.07;37.56;100098.00;10458037;28;20056;-61
2021/08/11 15:11:39;;;;;;;4.60;2.90;;;;;;;26.09;35.76;100099.47;10456767;28;20049;-61
2021/08/11 15:16:41;;;;;;;4.05;2.70;;;;;;;26.08;36.40;100110.38;10474396;28;20107;-61
2021/08/11 15:21:43;;;;;;;6.13;2.90;;;;;;;26.13;35.30;100105.28;10452818;28;20076;-60
2021/08/11 15:26:46;;;;;;;6.38;2.80;;;;;;;26.18;34.74;100105.56;10458255;28;20068;-61
2021/08/11 15:31:48;;;;;;;4.80;3.15;;;;;;;26.29;35.46;100097.03;10457637;28;20052;-61
2021/08/11 15:36:50;;;;;;;5.00;2.90;;;;;;;26.39;34.73;100087.66;10473724;28;20072;-61
2021/08/11 15:41:52;;;;;;;7.40;2.90;;;;;;;26.51;35.28;100087.97;10447097;28;20132;-61
2021/08/11 15:46:54;;;;;;;4.35;2.95;;;;;;;26.61;35.76;100083.16;10437396;28;20044;-61
2021/08/11 15:51:56;;;;;;;4.15;2.50;;;;;;;26.50;36.99;100073.75;10455365;28;20306;-61
2021/08/11 15:56:59;;;;;;;4.82;2.80;;;;;;;26.43;37.73;100082.72;10453446;28;20140;-61
2021/08/11 16:02:00;;;;;;;6.28;3.13;;;;;;;26.58;36.20;100078.19;10452243;28;20136;-61
2021/08/11 16:07:03;;;;;;;5.00;2.70;;;;;;;26.68;36.43;100074.19;10454764;28;20485;-61
2021/08/11 16:12:05;;;;;;;4.20;2.78;;;;;;;26.67;35.93;100075.19;10434242;28;20140;-61
2021/08/11 16:17:07;;;;;;;4.50;2.97;;;;;;;26.79;36.35;100072.00;10436185;28;20513;-61
2021/08/11 16:22:12;;;;;;;4.60;2.90;;;;;;;26.71;35.89;100070.25;10425497;28;20445;-61
2021/08/11 16:27:14;;;;;;;4.32;2.70;;;;;;;26.40;37.05;100077.78;10429179;28;20037;-61
2021/08/11 16:32:16;;;;;;;4.93;3.15;;;;;;;26.27;37.74;100075.75;10420699;28;20445;-60
2021/08/11 16:37:17;;;;;;;5.43;3.03;;;;;;;26.36;36.78;100077.31;10419645;28;20041;-60
2021/08/11 16:42:19;;;;;;;6.07;3.08;;;;;;;26.56;37.57;100075.72;10451415;28;20049;-61
2021/08/11 16:47:21;;;;;;;5.55;3.00;;;;;;;26.63;37.32;100073.91;10452608;28;20133;-60
2021/08/11 16:52:23;;;;;;;4.60;3.03;;;;;;;26.42;38.02;100081.09;10448138;28;20136;-61
2021/08/11 16:57:25;;;;;;;5.07;2.80;;;;;;;26.04;38.70;100082.28;10436156;28;20136;-61
2021/08/11 17:02:26;;;;;;;6.70;3.10;;;;;;;25.76;39.47;100074.06;10448412;28;20076;-61
2021/08/11 17:07:29;;;;;;;4.60;3.00;;;;;;;25.86;39.79;100080.78;10447421;28;20048;-60
2021/08/11 17:12:32;;;;;;;4.82;3.00;;;;;;;26.10;39.01;100081.53;10437924;28;20076;-61
2021/08/11 17:17:35;;;;;;;5.28;2.90;;;;;;;25.85;38.22;100076.44;10451769;28;22015;-61
2021/08/11 17:22:37;;;;;;;8.38;3.40;;;;;;;25.56;38.71;100073.78;10434261;28;20044;-60
2021/08/11 17:27:39;;;;;;;7.07;3.17;;;;;;;25.39;41.72;100082.16;10444049;28;20092;-61
2021/08/11 17:32:40;;;;;;;5.40;3.05;;;;;;;25.21;43.36;100085.16;10442276;28;20128;-61
2021/08/11 17:37:42;;;;;;;5.45;3.05;;;;;;;25.01;45.26;100090.19;10451612;28;20083;-61
2021/08/11 17:42:44;;;;;;;6.75;3.13;;;;;;;24.80;45.22;100090.03;10477739;28;20114;-61
2021/08/11 17:47:46;;;;;;;5.05;3.10;;;;;;;24.63;46.30;100084.94;10431804;28;20132;-61
2021/08/11 17:52:47;;;;;;;7.40;3.13;;;;;;;24.20;48.46;100089.06;10461342;28;20105;-61
2021/08/11 17:57:50;;;;;;;5.63;3.03;;;;;;;24.21;48.68;100093.38;10447055;28;20400;-61
2021/08/11 18:02:52;;;;;;;5.38;3.00;;;;;;;24.27;48.17;100090.00;10449825;28;20129;-62
2021/08/11 18:07:55;;;;;;;11.50;3.63;;;;;;;24.31;48.62;100102.00;10455382;28;20191;-61
2021/08/11 18:12:56;;;;;;;6.82;3.50;;;;;;;24.13;49.51;100094.25;10446054;28;20136;-61
2021/08/11 18:18:00;;;;;;;5.13;3.15;;;;;;;24.10;49.13;100099.13;10482183;28;20478;-61
2021/08/11 18:23:02;;;;;;;7.75;3.42;;;;;;;23.96;48.88;100102.50;10456054;28;20127;-61
2021/08/11 18:28:03;;;;;;;5.53;3.15;;;;;;;23.80;48.54;100103.38;10469150;28;20560;-62
2021/08/11 18:33:05;;;;;;;6.18;3.25;;;;;;;23.61;49.70;100101.09;10454639;28;20056;-61
2021/08/11 18:38:08;;;;;;;7.32;3.20;;;;;;;23.34;50.19;100112.97;10465596;28;20084;-61
2021/08/11 18:43:10;;;;;;;6.53;3.47;;;;;;;22.90;51.71;100119.66;10467411;28;20095;-61
2021/08/11 18:48:12;;;;;;;5.05;3.17;;;;;;;22.49;53.02;100113.41;10461888;28;20053;-61
2021/08/11 18:53:13;;;;;;;6.93;3.65;;;;;;;22.42;52.93;100117.72;10441875;28;20080;-61
2021/08/11 18:58:15;;;;;;;9.55;3.50;;;;;;;22.29;53.18;100135.97;10445428;28;20147;-61
2021/08/11 19:03:17;;;;;;;6.65;3.38;;;;;;;22.08;54.08;100134.75;10450821;28;20374;-63
2021/08/11 19:08:19;;;;;;;8.60;3.38;;;;;;;21.80;54.74;100139.41;10442988;28;20053;-62
2021/08/11 19:13:21;;;;;;;7.22;3.85;;;;;;;21.68;55.12;100146.81;10464285;28;20053;-63
2021/08/11 19:18:23;;;;;;;6.90;3.38;;;;;;;21.58;55.61;100151.41;10472520;28;20148;-63
2021/08/11 19:23:25;;;;;;;8.45;3.67;;;;;;;21.45;55.43;100160.81;10485935;28;20048;-63
2021/08/11 19:28:27;;;;;;;9.35;3.40;;;;;;;21.24;56.47;100170.91;10476047;28;20127;-63
2021/08/11 19:33:29;;;;;;;7.50;3.22;;;;;;;21.03;56.93;100176.53;10455345;28;20053;-63
2021/08/11 19:38:31;;;;;;;6.13;3.65;;;;;;;20.92;56.95;100174.97;10465277;28;20045;-62
2021/08/11 19:43:34;;;;;;;10.20;4.55;;;;;;;20.78;57.57;100182.63;10453627;28;20110;-62
2021/08/11 19:48:36;;;;;;;6.35;3.63;;;;;;;20.65;57.84;100182.97;10478408;28;20467;-62
2021/08/11 19:53:39;;;;;;;6.43;3.75;;;;;;;20.48;58.11;100175.78;10449097;28;20420;-63
2021/08/11 19:58:40;;;;;;;6.68;3.63;;;;;;;20.20;58.43;100182.06;10464961;28;20048;-63
2021/08/11 20:03:43;;;;;;;8.80;3.63;;;;;;;20.22;58.65;100182.75;10477026;28;20090;-63
2021/08/11 20:08:46;;;;;;;6.90;3.80;;;;;;;20.05;58.99;100188.88;10466496;28;20501;-63
2021/08/11 20:13:48;;;;;;;8.23;3.70;;;;;;;19.95;59.00;100190.72;10474649;28;20080;-63
2021/08/11 20:18:50;;;;;;;10.55;3.70;;;;;;;19.99;59.03;100195.56;10464246;28;20131;-63
2021/08/11 20:23:52;;;;;;;11.73;4.15;;;;;;;19.97;58.77;100207.34;10464323;28;20088;-63
2021/08/11 20:28:54;;;;;;;6.43;3.42;;;;;;;19.82;59.46;100214.91;10480779;28;20132;-63
2021/08/11 20:33:57;;;;;;;7.47;3.63;;;;;;;19.75;59.77;100210.28;10434137;28;20041;-63
2021/08/11 20:38:59;;;;;;;9.43;3.95;;;;;;;19.66;59.58;100216.47;10469269;28;20048;-63
2021/08/11 20:44:01;;;;;;;7.22;3.80;;;;;;;19.54;59.66;100222.91;10454793;28;20182;-63
2021/08/11 20:49:03;;;;;;;8.82;4.10;;;;;;;19.42;59.90;100233.66;10471489;28;20047;-63
2021/08/11 20:54:04;;;;;;;10.60;3.85;;;;;;;19.35;59.97;100229.91;10467277;28;20137;-63
2021/08/11 20:59:06;;;;;;;9.15;3.97;;;;;;;19.25;60.29;100228.22;10469364;28;20080;-63
2021/08/11 21:04:08;;;;;;;7.93;3.92;;;;;;;19.17;60.13;100239.53;10446001;28;20505;-63
2021/08/11 21:09:10;;;;;;;11.85;4.05;;;;;;;19.05;60.61;100240.63;10445182;28;20072;-63
2021/08/11 21:14:12;;;;;;;6.32;3.95;;;;;;;18.91;60.91;100240.97;10452891;28;20040;-63
2021/08/11 21:19:14;;;;;;;10.05;4.15;;;;;;;18.81;61.23;100240.13;10447373;28;20404;-63
2021/08/11 21:24:16;;;;;;;11.10;3.80;;;;;;;18.76;61.22;100242.34;10450851;28;20083;-63
2021/08/11 21:29:18;;;;;;;11.90;4.35;;;;;;;18.69;60.85;100243.84;10458360;28;20119;-63
2021/08/11 21:34:19;;;;;;;12.00;4.05;;;;;;;18.46;61.72;100250.38;10449569;28;20036;-63
2021/08/11 21:39:21;;;;;;;8.15;3.90;;;;;;;18.45;61.68;100246.88;10465327;28;20131;-63
2021/08/11 21:44:23;;;;;;;11.18;4.30;;;;;;;18.36;62.00;100247.66;10480198;28;20087;-62
2021/08/11 21:49:25;;;;;;;8.45;4.40;;;;;;;18.34;62.12;100260.19;10475349;28;20079;-62
2021/08/11 21:54:26;;;;;;;10.05;4.32;;;;;;;18.38;61.71;100250.19;10465889;28;20123;-63
2021/08/11 21:59:29;;;;;;;7.30;3.63;;;;;;;18.36;61.71;100241.53;10461492;28;20139;-63
2021/08/11 22:04:30;;;;;;;7.35;3.70;;;;;;;18.27;61.72;100258.22;10448691;28;20128;-63
2021/08/11 22:09:32;;;;;;;8.95;3.97;;;;;;;18.12;61.80;100260.34;10455797;28;20124;-63
2021/08/11 22:14:36;;;;;;;6.53;3.50;;;;;;;18.11;61.85;100257.81;10463747;28;20444;-62
2021/08/11 22:19:38;;;;;;;7.60;4.03;;;;;;;18.14;61.67;100257.53;10474684;28;20052;-63
2021/08/11 22:24:39;;;;;;;8.10;4.03;;;;;;;18.06;62.22;100265.31;10460437;28;20118;-63
2021/08/11 22:29:41;;;;;;;6.65;4.10;;;;;;;17.99;62.26;100264.16;10477427;28;20136;-63
2021/08/11 22:34:43;;;;;;;10.07;4.18;;;;;;;17.89;62.11;100255.34;10462870;28;20041;-62
2021/08/11 22:39:45;;;;;;;10.38;4.00;;;;;;;17.80;62.20;100260.44;10463947;28;20080;-62
2021/08/11 22:44:48;;;;;;;10.98;4.63;;;;;;;17.78;62.62;100266.81;10467096;28;20148;-62
2021/08/11 22:49:49;;;;;;;8.00;4.47;;;;;;;17.72;62.60;100262.91;10478847;28;20095;-62
2021/08/11 22:54:51;;;;;;;9.38;4.38;;;;;;;17.70;62.84;100256.91;10445500;28;20064;-62
2021/08/11 22:59:53;;;;;;;11.05;4.20;;;;;;;17.67;62.75;100259.78;10465190;28;20136;-62
2021/08/11 23:04:54;;;;;;;8.23;4.43;;;;;;;17.57;62.63;100271.25;10473018;28;20071;-62
2021/08/11 23:09:56;;;;;;;7.90;4.38;;;;;;;17.52;62.97;100262.88;10463429;28;20133;-62